Bookmark and Share
Track history (hours):
 

Sirius

More information available from US FCC via Universal Licensing System and Coast Guard Vessel Documentation Center.

Last reported at 2014-Apr-23 02:32 UTC. Time now 2014-Apr-24 05:56 UTC.
Position N 41°32' W 070°44'.

Length 22 m; draft 1.9 m.

Type: Towing. MMSI: 367181040.

NotesDate/timePositionNaut miles runAvg speedWind from/ knotsBaromVisibWave heightAir tempDewpointWater temp
2014-Apr-23 02:32N 41°32' W 070°44'6 5.7
2014-Apr-23 01:34N 41°34' W 070°52'4 2.1
2014-Apr-22 23:29N 41°37' W 070°54'7 7.8
2014-Apr-22 22:33N 41°32' W 070°47'8 8.2
2014-Apr-22 21:34N 41°30' W 070°37'3 2.7
2014-Apr-22 20:33N 41°27' W 070°36'0 0.1
2014-Apr-22 19:13N 41°27' W 070°36'0 0.0
2014-Apr-22 18:29N 41°27' W 070°36'0 0.0
2014-Apr-22 17:34N 41°27' W 070°36'0 0.0
2014-Apr-22 16:33N 41°27' W 070°36'0 0.2
2014-Apr-22 15:30N 41°27' W 070°36'0 0.0
2014-Apr-22 14:11N 41°27' W 070°36'0 0.0
2014-Apr-22 13:26N 41°27' W 070°36'0 0.0
2014-Apr-22 12:33N 41°27' W 070°36'  
2014-Apr-18 05:32N 41°29' W 070°36'8 8.2
2014-Apr-18 04:30N 41°32' W 070°46'6 0.9
2014-Apr-17 21:33N 41°30' W 070°38'4 4.3
2014-Apr-17 20:31N 41°30' W 070°44'7 6.7
2014-Apr-17 19:31N 41°27' W 070°52'3 3.0
2014-Apr-17 18:30N 41°25' W 070°55'0 0.0
2014-Apr-17 17:28N 41°25' W 070°55'5 3.7
2014-Apr-17 16:08N 41°30' W 070°53'  

Dump ship's entire track history

sailing weather and tide predictions

Sirius — WDA2145 — position and weather